createdAt,value
2023-04-11T00:04:21.149Z,0.60
2023-04-11T00:09:28.177Z,0.70
2023-04-11T00:14:32.440Z,0.77
2023-04-11T00:19:37.740Z,1.00
2023-04-11T00:24:43.529Z,0.80
2023-04-11T00:29:48.290Z,0.90
2023-04-11T00:34:53.564Z,0.82
2023-04-11T00:39:58.375Z,0.70
2023-04-11T00:45:02.805Z,0.70
2023-04-11T00:50:07.649Z,0.90
2023-04-11T00:55:12.943Z,0.88
2023-04-11T01:00:18.530Z,0.80
2023-04-11T01:05:21.964Z,0.90
2023-04-11T01:10:29.010Z,0.70
2023-04-11T01:15:38.669Z,0.80
2023-04-11T01:20:44.905Z,0.90
2023-04-11T01:25:49.973Z,0.80
2023-04-11T01:30:59.398Z,0.80
2023-04-11T01:36:02.815Z,0.50
2023-04-11T01:41:11.540Z,0.73
2023-04-11T01:46:15.418Z,0.88
2023-04-11T01:51:19.767Z,0.93
2023-04-11T01:56:25.849Z,0.80
2023-04-11T02:01:29.750Z,0.90
2023-04-11T02:06:35.036Z,0.90
2023-04-11T02:11:41.853Z,0.95
2023-04-11T02:16:53.540Z,0.70
2023-04-11T02:21:57.008Z,0.75
2023-04-11T02:27:03.380Z,1.10
2023-04-11T02:32:06.965Z,1.20
2023-04-11T02:37:10.526Z,0.80
2023-04-11T02:42:16.270Z,0.90
2023-04-11T02:47:20.769Z,1.10
2023-04-11T02:52:28.180Z,1.00
2023-04-11T02:57:35.618Z,0.90
2023-04-11T03:08:09.110Z,1.00
2023-04-11T03:13:16.813Z,1.27
2023-04-11T03:18:23.732Z,1.13
2023-04-11T03:23:27.233Z,0.65
2023-04-11T03:28:32.061Z,0.60
2023-04-11T03:33:35.405Z,0.38
2023-04-11T03:38:38.778Z,0.30
2023-04-11T03:43:43.463Z,0.30
2023-04-11T03:48:47.754Z,0.30
2023-04-11T03:53:52.496Z,0.40
2023-04-11T03:58:57.355Z,0.30
2023-04-11T04:04:02.163Z,0.38
2023-04-11T04:09:07.007Z,0.20
2023-04-11T04:14:12.910Z,0.30
2023-04-11T04:19:17.317Z,0.40
2023-04-11T04:24:21.472Z,0.38
2023-04-11T04:29:34.232Z,0.40
2023-04-11T04:34:41.806Z,0.30
2023-04-11T04:39:45.116Z,0.30
2023-04-11T04:44:52.124Z,0.30
2023-04-11T04:49:56.904Z,0.30
2023-04-11T04:55:01.478Z,0.40
2023-04-11T05:00:13.750Z,0.28
2023-04-11T05:05:17.194Z,0.30
2023-04-11T05:10:21.698Z,0.20
2023-04-11T05:15:27.497Z,0.20
2023-04-11T05:20:31.818Z,0.30
2023-04-11T05:25:39.273Z,0.20
2023-04-11T05:30:49.936Z,0.20
2023-04-11T05:35:55.815Z,0.20
2023-04-11T05:40:59.176Z,0.25
2023-04-11T05:46:06.832Z,0.20
2023-04-11T05:51:10.373Z,0.22
2023-04-11T05:56:14.160Z,0.25
2023-04-11T06:01:20.057Z,0.40
2023-04-11T06:06:24.342Z,0.47
2023-04-11T06:11:28.231Z,0.40
2023-04-11T06:16:34.413Z,0.40
2023-04-11T06:21:41.460Z,0.40
2023-04-11T06:26:44.840Z,0.32
2023-04-11T06:31:52.574Z,0.40
2023-04-11T06:36:56.062Z,0.30
2023-04-11T06:41:59.475Z,0.40
2023-04-11T06:47:04.285Z,0.50
2023-04-11T06:52:07.687Z,0.45
2023-04-11T06:57:32.998Z,0.50
2023-04-11T07:02:39.479Z,0.40
2023-04-11T07:07:43.243Z,0.60
2023-04-11T07:12:46.700Z,0.40
2023-04-11T07:17:53.206Z,0.60
2023-04-11T07:23:09.656Z,0.57
2023-04-11T07:28:14.139Z,0.60
2023-04-11T07:33:49.870Z,0.60
2023-04-11T07:38:57.793Z,0.52
2023-04-11T07:44:24.152Z,0.63
2023-04-11T07:49:29.032Z,0.65
2023-04-11T07:54:33.104Z,0.68
2023-04-11T07:59:36.946Z,0.75
2023-04-11T08:04:42.404Z,0.70
2023-04-11T08:09:48.294Z,0.60
2023-04-11T08:14:56.727Z,0.95
2023-04-11T08:20:02.843Z,0.90
2023-04-11T08:25:07.739Z,0.60
2023-04-11T08:30:11.704Z,0.65
2023-04-11T08:40:46.919Z,0.82
2023-04-11T08:45:50.415Z,0.98
2023-04-11T08:51:02.767Z,0.60
2023-04-11T08:56:19.489Z,0.98
2023-04-11T09:01:34.233Z,0.82
2023-04-11T09:06:42.541Z,1.30
2023-04-11T09:11:56.086Z,0.80
2023-04-11T09:17:03.582Z,0.73
2023-04-11T09:22:09.748Z,0.60
2023-04-11T09:27:15.791Z,0.63
2023-04-11T09:32:32.649Z,0.75
2023-04-11T09:37:47.035Z,0.60
2023-04-11T09:42:58.865Z,0.80
2023-04-11T09:48:04.701Z,1.20
2023-04-11T09:53:10.976Z,1.00
2023-04-11T09:58:20.413Z,0.82
2023-04-11T10:03:25.822Z,1.30
2023-04-11T10:08:34.490Z,0.80
2023-04-11T10:13:42.290Z,0.70
2023-04-11T10:19:19.354Z,0.63
2023-04-11T10:24:26.808Z,0.70
2023-04-11T10:29:51.809Z,0.95
2023-04-11T10:35:32.268Z,0.88
2023-04-11T10:40:37.188Z,0.65
2023-04-11T10:45:42.894Z,1.02
2023-04-11T10:50:47.374Z,0.63
2023-04-11T10:55:53.379Z,0.60
2023-04-11T11:01:37.171Z,0.80
2023-04-11T11:06:56.694Z,0.60
2023-04-11T11:17:32.239Z,0.90
2023-04-11T11:23:10.818Z,0.80
2023-04-11T11:28:55.363Z,0.73
2023-04-11T11:34:18.368Z,0.65
2023-04-11T11:39:26.812Z,0.70
2023-04-11T11:44:32.845Z,0.77
2023-04-11T11:49:48.019Z,0.70
2023-04-11T11:54:54.912Z,0.80
2023-04-11T11:59:59.266Z,0.60
2023-04-11T12:10:41.808Z,0.75
2023-04-11T12:16:25.690Z,0.75
2023-04-11T12:21:37.677Z,1.02
2023-04-11T12:26:57.397Z,0.47
2023-04-11T12:32:07.426Z,0.63
2023-04-11T12:37:13.566Z,1.27
2023-04-11T12:42:21.092Z,0.93
2023-04-11T12:47:27.474Z,0.77
2023-04-11T12:52:32.566Z,0.82
2023-04-11T12:57:36.070Z,0.65
2023-04-11T13:02:43.856Z,0.85
2023-04-11T13:07:49.607Z,0.50
2023-04-11T13:12:58.533Z,0.70
2023-04-11T13:18:02.185Z,0.88
2023-04-11T13:23:08.944Z,0.50
2023-04-11T13:28:14.803Z,0.55
2023-04-11T13:33:18.266Z,0.70
2023-04-11T13:38:23.031Z,0.80
2023-04-11T13:43:28.389Z,0.70
2023-04-11T13:48:33.084Z,0.70
2023-04-11T13:54:07.644Z,0.60
2023-04-11T13:59:11.678Z,0.60
2023-04-11T14:04:22.625Z,1.10
2023-04-11T14:09:31.351Z,0.52
2023-04-11T14:14:36.642Z,0.82
2023-04-11T14:19:40.484Z,0.80
2023-04-11T14:24:45.203Z,0.80
2023-04-11T14:29:50.238Z,0.73
2023-04-11T14:34:56.088Z,0.82
2023-04-11T14:40:10.169Z,0.80
2023-04-11T14:45:13.552Z,0.90
2023-04-11T14:50:17.001Z,0.82
2023-04-11T14:55:23.195Z,0.80
2023-04-11T15:00:27.892Z,0.95
2023-04-11T15:05:31.998Z,0.88
2023-04-11T15:10:37.209Z,0.77
2023-04-11T15:15:42.243Z,1.15
2023-04-11T15:20:50.170Z,1.07
2023-04-11T15:26:00.676Z,0.80
2023-04-11T15:31:06.395Z,0.80
2023-04-11T15:36:10.749Z,0.70
2023-04-11T15:41:15.582Z,1.10
2023-04-11T15:46:20.633Z,0.70
2023-04-11T15:51:24.808Z,1.10
2023-04-11T15:56:31.773Z,0.80
2023-04-11T16:01:37.223Z,0.73
2023-04-11T16:06:40.705Z,0.80
2023-04-11T16:11:46.792Z,1.05
2023-04-11T16:16:50.507Z,0.75
2023-04-11T16:22:05.298Z,0.95
2023-04-11T16:27:10.487Z,0.77
2023-04-11T16:32:13.819Z,0.65
2023-04-11T16:37:17.181Z,0.75
2023-04-11T16:42:25.123Z,0.75
2023-04-11T16:47:30.284Z,0.57
2023-04-11T16:52:33.934Z,0.93
2023-04-11T16:57:40.007Z,0.82
2023-04-11T17:02:43.644Z,1.15
2023-04-11T17:07:47.114Z,0.70
2023-04-11T17:12:51.896Z,0.85
2023-04-11T17:17:55.378Z,0.80
2023-04-11T17:22:58.620Z,0.80
2023-04-11T17:28:03.260Z,0.68
2023-04-11T17:33:07.586Z,1.20
2023-04-11T17:38:11.441Z,0.70
2023-04-11T17:43:16.798Z,1.00
2023-04-11T17:48:22.782Z,0.85
2023-04-11T17:53:26.580Z,0.77
2023-04-11T17:58:31.856Z,1.08
2023-04-11T18:03:35.874Z,0.80
2023-04-11T18:08:49.842Z,0.80
2023-04-11T18:13:58.264Z,1.10
2023-04-11T18:19:02.082Z,0.80
2023-04-11T18:24:05.493Z,0.70
2023-04-11T18:29:10.280Z,0.77
2023-04-11T18:34:14.008Z,0.80
2023-04-11T18:39:17.807Z,1.13
2023-04-11T18:44:22.552Z,0.90
2023-04-11T18:49:26.515Z,0.75
2023-04-11T18:54:30.064Z,1.08
2023-04-11T18:59:41.518Z,1.00
2023-04-11T19:04:47.209Z,0.88
2023-04-11T19:09:51.784Z,0.90
2023-04-11T19:14:56.685Z,1.10
2023-04-11T19:20:02.067Z,0.70
2023-04-11T19:25:05.897Z,0.73
2023-04-11T19:30:14.706Z,0.85
2023-04-11T19:35:21.503Z,0.57
2023-04-11T19:40:24.993Z,0.77
2023-04-11T19:45:31.750Z,0.80
2023-04-11T19:50:37.079Z,0.80
2023-04-11T19:55:43.150Z,1.00
2023-04-11T20:00:48.941Z,0.90
2023-04-11T20:05:52.320Z,1.35
2023-04-11T20:10:58.227Z,1.30
2023-04-11T20:16:04.841Z,0.95
2023-04-11T20:21:08.180Z,1.50
2023-04-11T20:26:11.468Z,1.77
2023-04-11T20:31:16.497Z,1.58
2023-04-11T20:36:19.939Z,1.90
2023-04-11T20:41:25.194Z,1.40
2023-04-11T20:46:30.493Z,1.58
2023-04-11T20:51:34.308Z,1.80
2023-04-11T20:56:37.656Z,1.75
2023-04-11T21:01:42.399Z,1.95
2023-04-11T21:06:46.114Z,2.03
2023-04-11T21:11:49.386Z,1.75
2023-04-11T21:16:54.092Z,1.80
2023-04-11T21:21:57.344Z,2.10
2023-04-11T21:27:01.440Z,1.77
2023-04-11T21:32:06.279Z,1.75
2023-04-11T21:37:09.796Z,2.25
2023-04-11T21:42:13.503Z,2.05
2023-04-11T21:47:18.542Z,1.50
2023-04-11T21:52:21.831Z,1.80
2023-04-11T21:57:25.167Z,1.77
2023-04-11T22:02:30.104Z,2.08
2023-04-11T22:07:39.561Z,4.35
2023-04-11T22:12:45.900Z,2.83
2023-04-11T22:17:54.571Z,4.00
2023-04-11T22:22:59.440Z,3.22
2023-04-11T22:28:02.811Z,2.90
2023-04-11T22:33:07.796Z,2.03
2023-04-11T22:38:11.175Z,1.50
2023-04-11T22:43:14.554Z,1.63
2023-04-11T22:48:19.195Z,1.35
2023-04-11T22:53:22.703Z,1.38
2023-04-11T22:58:26.727Z,1.67
2023-04-11T23:03:31.722Z,1.13
2023-04-11T23:08:35.415Z,1.90
2023-04-11T23:13:38.778Z,1.50
2023-04-11T23:18:43.506Z,1.38
2023-04-11T23:23:47.090Z,1.27
2023-04-11T23:28:50.592Z,1.30
2023-04-11T23:33:55.752Z,1.17
2023-04-11T23:38:59.561Z,0.90
2023-04-11T23:44:05.469Z,1.55
2023-04-11T23:49:11.135Z,1.10
2023-04-11T23:54:14.688Z,1.00
2023-04-11T23:59:18.415Z,0.82
